sensor_id;sensor_type;location;lat;lon;timestamp;pressure;altitude;pressure_sealevel;temperature;humidity
69689;BME280;56932;38.402;-96.176;2023-05-14T00:00:58;97587.72;;;27.38;21.15
69689;BME280;56932;38.402;-96.176;2023-05-14T00:03:24;97596.84;;;27.39;20.94
69689;BME280;56932;38.402;-96.176;2023-05-14T00:05:48;97605.04;;;27.22;21.12
69689;BME280;56932;38.402;-96.176;2023-05-14T00:08:14;97608.84;;;27.52;21.02
69689;BME280;56932;38.402;-96.176;2023-05-14T00:10:40;97613.32;;;27.07;20.63
69689;BME280;56932;38.402;-96.176;2023-05-14T00:13:05;97616.08;;;27.23;20.74
69689;BME280;56932;38.402;-96.176;2023-05-14T00:15:30;97620.61;;;27.25;20.54
69689;BME280;56932;38.402;-96.176;2023-05-14T00:17:55;97619.54;;;27.12;20.65
69689;BME280;56932;38.402;-96.176;2023-05-14T00:20:21;97622.42;;;27.54;20.53
69689;BME280;56932;38.402;-96.176;2023-05-14T00:22:46;97626.33;;;26.51;20.47
69689;BME280;56932;38.402;-96.176;2023-05-14T00:25:12;97630.50;;;26.70;20.54
69689;BME280;56932;38.402;-96.176;2023-05-14T00:27:37;97631.16;;;26.94;20.30
69689;BME280;56932;38.402;-96.176;2023-05-14T00:30:05;97628.67;;;26.83;20.23
69689;BME280;56932;38.402;-96.176;2023-05-14T00:32:28;97631.29;;;26.71;20.36
69689;BME280;56932;38.402;-96.176;2023-05-14T00:34:54;97630.73;;;26.43;20.20
69689;BME280;56932;38.402;-96.176;2023-05-14T00:37:19;97635.02;;;27.17;19.71
69689;BME280;56932;38.402;-96.176;2023-05-14T00:39:45;97635.65;;;26.58;20.13
69689;BME280;56932;38.402;-96.176;2023-05-14T00:42:10;97633.26;;;26.57;19.98
69689;BME280;56932;38.402;-96.176;2023-05-14T00:44:36;97629.91;;;25.81;20.25
69689;BME280;56932;38.402;-96.176;2023-05-14T00:47:01;97631.44;;;26.46;20.00
69689;BME280;56932;38.402;-96.176;2023-05-14T00:49:27;97631.38;;;26.56;19.75
69689;BME280;56932;38.402;-96.176;2023-05-14T00:51:52;97637.87;;;27.01;19.51
69689;BME280;56932;38.402;-96.176;2023-05-14T00:54:18;97637.20;;;26.93;19.87
69689;BME280;56932;38.402;-96.176;2023-05-14T00:56:44;97640.39;;;25.63;19.98
69689;BME280;56932;38.402;-96.176;2023-05-14T00:59:08;97638.39;;;26.31;19.74
69689;BME280;56932;38.402;-96.176;2023-05-14T01:01:33;97643.00;;;26.95;19.63
69689;BME280;56932;38.402;-96.176;2023-05-14T01:04:00;97648.41;;;26.22;19.76
69689;BME280;56932;38.402;-96.176;2023-05-14T01:08:58;97661.65;;;26.16;19.66
69689;BME280;56932;38.402;-96.176;2023-05-14T01:11:21;97664.84;;;26.79;19.67
69689;BME280;56932;38.402;-96.176;2023-05-14T01:13:46;97668.69;;;26.39;19.83
69689;BME280;56932;38.402;-96.176;2023-05-14T01:16:08;97671.50;;;26.52;19.55
69689;BME280;56932;38.402;-96.176;2023-05-14T01:18:32;97676.89;;;26.40;19.44
69689;BME280;56932;38.402;-96.176;2023-05-14T01:20:57;97683.29;;;25.66;19.69
69689;BME280;56932;38.402;-96.176;2023-05-14T01:23:23;97692.62;;;26.80;19.27
69689;BME280;56932;38.402;-96.176;2023-05-14T01:25:48;97691.85;;;26.27;19.63
69689;BME280;56932;38.402;-96.176;2023-05-14T01:28:17;97698.28;;;26.40;19.30
69689;BME280;56932;38.402;-96.176;2023-05-14T01:30:44;97701.65;;;25.64;19.52
69689;BME280;56932;38.402;-96.176;2023-05-14T01:33:08;97706.93;;;26.21;19.44
69689;BME280;56932;38.402;-96.176;2023-05-14T01:35:30;97712.35;;;25.83;19.61
69689;BME280;56932;38.402;-96.176;2023-05-14T01:37:58;97716.15;;;25.91;19.60
69689;BME280;56932;38.402;-96.176;2023-05-14T01:40:21;97719.24;;;25.88;19.27
69689;BME280;56932;38.402;-96.176;2023-05-14T01:42:47;97723.92;;;25.78;18.97
69689;BME280;56932;38.402;-96.176;2023-05-14T01:45:12;97727.87;;;25.98;19.49
69689;BME280;56932;38.402;-96.176;2023-05-14T01:47:37;97728.07;;;25.38;19.81
69689;BME280;56932;38.402;-96.176;2023-05-14T01:50:03;97733.67;;;25.61;19.64
69689;BME280;56932;38.402;-96.176;2023-05-14T01:52:28;97732.78;;;25.21;20.45
69689;BME280;56932;38.402;-96.176;2023-05-14T01:54:54;97736.12;;;24.79;21.03
69689;BME280;56932;38.402;-96.176;2023-05-14T01:57:19;97737.84;;;24.71;21.38
69689;BME280;56932;38.402;-96.176;2023-05-14T01:59:45;97734.97;;;24.14;22.03
69689;BME280;56932;38.402;-96.176;2023-05-14T02:02:10;97738.19;;;24.73;21.79
69689;BME280;56932;38.402;-96.176;2023-05-14T02:04:36;97739.28;;;24.10;22.32
69689;BME280;56932;38.402;-96.176;2023-05-14T02:07:01;97743.02;;;24.57;22.29
69689;BME280;56932;38.402;-96.176;2023-05-14T02:09:26;97747.49;;;24.49;22.54
69689;BME280;56932;38.402;-96.176;2023-05-14T02:11:52;97749.30;;;24.35;22.88
69689;BME280;56932;38.402;-96.176;2023-05-14T02:14:17;97750.18;;;24.77;23.14
69689;BME280;56932;38.402;-96.176;2023-05-14T02:16:43;97750.22;;;23.82;23.08
69689;BME280;56932;38.402;-96.176;2023-05-14T02:19:08;97752.39;;;24.69;22.92
69689;BME280;56932;38.402;-96.176;2023-05-14T02:21:34;97762.45;;;24.13;23.52
69689;BME280;56932;38.402;-96.176;2023-05-14T02:23:59;97768.50;;;24.50;23.40
69689;BME280;56932;38.402;-96.176;2023-05-14T02:26:25;97771.16;;;25.05;23.23
69689;BME280;56932;38.402;-96.176;2023-05-14T02:28:50;97774.86;;;23.35;24.21
69689;BME280;56932;38.402;-96.176;2023-05-14T02:31:16;97779.02;;;23.54;24.84
69689;BME280;56932;38.402;-96.176;2023-05-14T02:33:41;97777.56;;;24.30;24.30
69689;BME280;56932;38.402;-96.176;2023-05-14T02:36:07;97776.51;;;23.73;24.93
69689;BME280;56932;38.402;-96.176;2023-05-14T02:38:32;97780.34;;;24.25;24.79
69689;BME280;56932;38.402;-96.176;2023-05-14T02:40:57;97792.01;;;23.72;25.21
69689;BME280;56932;38.402;-96.176;2023-05-14T02:43:23;97799.72;;;24.33;25.01
69689;BME280;56932;38.402;-96.176;2023-05-14T02:45:48;97812.65;;;24.33;25.19
69689;BME280;56932;38.402;-96.176;2023-05-14T02:48:14;97821.43;;;25.06;24.63
69689;BME280;56932;38.402;-96.176;2023-05-14T02:50:39;97824.52;;;23.61;25.61
69689;BME280;56932;38.402;-96.176;2023-05-14T02:53:05;97827.30;;;23.54;25.96
69689;BME280;56932;38.402;-96.176;2023-05-14T02:55:30;97836.56;;;23.48;26.45
69689;BME280;56932;38.402;-96.176;2023-05-14T02:57:55;97843.92;;;24.29;25.53
69689;BME280;56932;38.402;-96.176;2023-05-14T03:00:21;97842.32;;;24.86;25.31
69689;BME280;56932;38.402;-96.176;2023-05-14T03:02:47;97847.35;;;23.94;25.34
69689;BME280;56932;38.402;-96.176;2023-05-14T03:05:12;97850.70;;;24.25;25.80
69689;BME280;56932;38.402;-96.176;2023-05-14T03:07:37;97849.11;;;23.86;26.25
69689;BME280;56932;38.402;-96.176;2023-05-14T03:10:03;97852.10;;;24.59;25.93
69689;BME280;56932;38.402;-96.176;2023-05-14T03:12:28;97854.62;;;24.17;26.18
69689;BME280;56932;38.402;-96.176;2023-05-14T03:14:54;97856.37;;;23.51;26.93
69689;BME280;56932;38.402;-96.176;2023-05-14T03:17:19;97857.40;;;23.97;26.86
69689;BME280;56932;38.402;-96.176;2023-05-14T03:19:45;97855.98;;;24.38;26.29
69689;BME280;56932;38.402;-96.176;2023-05-14T03:22:10;97853.55;;;24.33;26.66
69689;BME280;56932;38.402;-96.176;2023-05-14T03:24:39;97853.03;;;23.86;26.72
69689;BME280;56932;38.402;-96.176;2023-05-14T03:27:01;97854.17;;;23.87;26.79
69689;BME280;56932;38.402;-96.176;2023-05-14T03:29:26;97856.50;;;24.41;26.76
69689;BME280;56932;38.402;-96.176;2023-05-14T03:31:52;97858.62;;;24.14;26.87
69689;BME280;56932;38.402;-96.176;2023-05-14T03:34:18;97858.29;;;24.68;26.38
69689;BME280;56932;38.402;-96.176;2023-05-14T03:36:43;97858.20;;;23.05;27.34
69689;BME280;56932;38.402;-96.176;2023-05-14T03:39:08;97855.77;;;24.52;26.47
69689;BME280;56932;38.402;-96.176;2023-05-14T03:41:34;97854.27;;;24.53;26.69
69689;BME280;56932;38.402;-96.176;2023-05-14T03:43:59;97856.65;;;24.29;27.40
69689;BME280;56932;38.402;-96.176;2023-05-14T03:46:25;97857.69;;;25.56;25.16
69689;BME280;56932;38.402;-96.176;2023-05-14T03:48:50;97865.57;;;24.74;24.46
69689;BME280;56932;38.402;-96.176;2023-05-14T03:51:16;97873.71;;;25.49;23.96
69689;BME280;56932;38.402;-96.176;2023-05-14T03:53:41;97884.60;;;25.89;23.14
69689;BME280;56932;38.402;-96.176;2023-05-14T03:56:07;97889.11;;;25.20;23.08
69689;BME280;56932;38.402;-96.176;2023-05-14T03:58:32;97883.88;;;25.21;22.71
69689;BME280;56932;38.402;-96.176;2023-05-14T04:00:57;97882.06;;;25.26;22.55
69689;BME280;56932;38.402;-96.176;2023-05-14T04:03:23;97879.55;;;25.47;22.38
69689;BME280;56932;38.402;-96.176;2023-05-14T04:05:49;97877.01;;;25.35;22.23
69689;BME280;56932;38.402;-96.176;2023-05-14T04:08:14;97882.30;;;25.16;22.10
69689;BME280;56932;38.402;-96.176;2023-05-14T04:10:41;97885.27;;;24.43;21.99
69689;BME280;56932;38.402;-96.176;2023-05-14T04:13:05;97884.44;;;24.82;21.83
69689;BME280;56932;38.402;-96.176;2023-05-14T04:15:30;97884.38;;;24.53;22.14
69689;BME280;56932;38.402;-96.176;2023-05-14T04:17:56;97884.83;;;24.78;21.85
69689;BME280;56932;38.402;-96.176;2023-05-14T04:20:21;97880.41;;;24.76;21.67
69689;BME280;56932;38.402;-96.176;2023-05-14T04:22:47;97880.29;;;23.73;21.62
69689;BME280;56932;38.402;-96.176;2023-05-14T04:25:12;97876.39;;;24.43;21.57
69689;BME280;56932;38.402;-96.176;2023-05-14T04:27:38;97874.17;;;24.46;21.67
69689;BME280;56932;38.402;-96.176;2023-05-14T04:30:04;97875.26;;;24.11;21.66
69689;BME280;56932;38.402;-96.176;2023-05-14T04:32:29;97871.64;;;23.81;22.21
69689;BME280;56932;38.402;-96.176;2023-05-14T04:34:54;97872.09;;;24.12;21.68
69689;BME280;56932;38.402;-96.176;2023-05-14T04:37:20;97868.99;;;24.21;22.06
69689;BME280;56932;38.402;-96.176;2023-05-14T04:39:45;97871.58;;;24.24;21.96
69689;BME280;56932;38.402;-96.176;2023-05-14T04:42:10;97866.86;;;23.12;23.29
69689;BME280;56932;38.402;-96.176;2023-05-14T04:44:36;97861.37;;;22.43;23.68
69689;BME280;56932;38.402;-96.176;2023-05-14T04:47:02;97861.97;;;22.49;23.83
69689;BME280;56932;38.402;-96.176;2023-05-14T04:49:27;97864.81;;;22.52;24.34
69689;BME280;56932;38.402;-96.176;2023-05-14T04:51:52;97866.30;;;22.54;24.79
69689;BME280;56932;38.402;-96.176;2023-05-14T04:54:18;97869.22;;;22.88;24.34
69689;BME280;56932;38.402;-96.176;2023-05-14T04:56:44;97870.41;;;21.84;25.08
69689;BME280;56932;38.402;-96.176;2023-05-14T04:59:09;97873.46;;;23.01;24.43
69689;BME280;56932;38.402;-96.176;2023-05-14T05:01:34;97874.76;;;23.10;24.29
69689;BME280;56932;38.402;-96.176;2023-05-14T05:04:00;97870.38;;;23.04;24.92
69689;BME280;56932;38.402;-96.176;2023-05-14T05:06:25;97871.35;;;24.52;23.88
69689;BME280;56932;38.402;-96.176;2023-05-14T05:08:51;97869.35;;;23.51;24.15
69689;BME280;56932;38.402;-96.176;2023-05-14T05:11:16;97868.79;;;23.41;24.62
69689;BME280;56932;38.402;-96.176;2023-05-14T05:13:42;97865.13;;;23.03;25.49
69689;BME280;56932;38.402;-96.176;2023-05-14T05:16:07;97868.48;;;23.89;24.90
69689;BME280;56932;38.402;-96.176;2023-05-14T05:18:33;97867.11;;;22.60;26.21
69689;BME280;56932;38.402;-96.176;2023-05-14T05:20:58;97863.00;;;23.74;24.87
69689;BME280;56932;38.402;-96.176;2023-05-14T05:23:23;97863.16;;;24.39;24.70
69689;BME280;56932;38.402;-96.176;2023-05-14T05:25:49;97867.06;;;24.12;24.71
69689;BME280;56932;38.402;-96.176;2023-05-14T05:28:14;97873.51;;;24.13;24.78
69689;BME280;56932;38.402;-96.176;2023-05-14T05:30:40;97873.83;;;23.73;24.84
69689;BME280;56932;38.402;-96.176;2023-05-14T05:33:05;97872.60;;;23.76;25.16
69689;BME280;56932;38.402;-96.176;2023-05-14T05:35:31;97873.23;;;24.06;25.25
69689;BME280;56932;38.402;-96.176;2023-05-14T05:37:57;97864.06;;;23.60;25.64
69689;BME280;56932;38.402;-96.176;2023-05-14T05:40:22;97866.36;;;24.94;24.80
69689;BME280;56932;38.402;-96.176;2023-05-14T05:42:47;97860.25;;;22.96;25.71
69689;BME280;56932;38.402;-96.176;2023-05-14T05:45:13;97856.74;;;24.90;25.07
69689;BME280;56932;38.402;-96.176;2023-05-14T05:47:38;97853.04;;;23.93;25.69
69689;BME280;56932;38.402;-96.176;2023-05-14T05:50:04;97847.30;;;24.59;25.06
69689;BME280;56932;38.402;-96.176;2023-05-14T05:52:29;97850.84;;;24.18;26.03
69689;BME280;56932;38.402;-96.176;2023-05-14T05:54:54;97855.90;;;24.99;25.02
69689;BME280;56932;38.402;-96.176;2023-05-14T05:57:20;97858.51;;;23.54;26.08
69689;BME280;56932;38.402;-96.176;2023-05-14T05:59:45;97862.09;;;24.84;24.97
69689;BME280;56932;38.402;-96.176;2023-05-14T06:02:11;97860.15;;;24.28;25.74
69689;BME280;56932;38.402;-96.176;2023-05-14T06:04:37;97860.05;;;23.86;25.78
69689;BME280;56932;38.402;-96.176;2023-05-14T06:07:03;97858.12;;;23.80;25.07
69689;BME280;56932;38.402;-96.176;2023-05-14T06:09:28;97853.98;;;24.62;25.39
69689;BME280;56932;38.402;-96.176;2023-05-14T06:11:53;97852.89;;;24.32;25.70
69689;BME280;56932;38.402;-96.176;2023-05-14T06:14:18;97848.15;;;23.88;26.41
69689;BME280;56932;38.402;-96.176;2023-05-14T06:16:44;97842.59;;;24.16;25.37
69689;BME280;56932;38.402;-96.176;2023-05-14T06:19:09;97843.64;;;24.30;25.90
69689;BME280;56932;38.402;-96.176;2023-05-14T06:21:35;97838.69;;;24.75;25.53
69689;BME280;56932;38.402;-96.176;2023-05-14T06:24:00;97836.41;;;23.44;26.79
69689;BME280;56932;38.402;-96.176;2023-05-14T06:26:26;97834.78;;;24.47;25.91
69689;BME280;56932;38.402;-96.176;2023-05-14T06:28:51;97831.82;;;23.44;26.74
69689;BME280;56932;38.402;-96.176;2023-05-14T06:31:17;97826.09;;;24.40;26.09
69689;BME280;56932;38.402;-96.176;2023-05-14T06:33:42;97825.70;;;23.37;27.10
69689;BME280;56932;38.402;-96.176;2023-05-14T06:36:08;97821.04;;;24.77;25.78
69689;BME280;56932;38.402;-96.176;2023-05-14T06:38:33;97827.59;;;24.76;25.88
69689;BME280;56932;38.402;-96.176;2023-05-14T06:40:58;97826.17;;;24.09;26.35
69689;BME280;56932;38.402;-96.176;2023-05-14T06:43:24;97826.61;;;24.09;26.60
69689;BME280;56932;38.402;-96.176;2023-05-14T06:45:49;97823.18;;;24.63;26.43
69689;BME280;56932;38.402;-96.176;2023-05-14T06:48:15;97824.30;;;24.14;26.93
69689;BME280;56932;38.402;-96.176;2023-05-14T06:50:41;97825.30;;;23.72;26.52
69689;BME280;56932;38.402;-96.176;2023-05-14T06:53:06;97823.76;;;23.86;27.08
69689;BME280;56932;38.402;-96.176;2023-05-14T06:55:31;97820.75;;;25.07;26.02
69689;BME280;56932;38.402;-96.176;2023-05-14T06:57:57;97819.01;;;23.88;27.41
69689;BME280;56932;38.402;-96.176;2023-05-14T07:00:22;97820.46;;;23.92;27.40
69689;BME280;56932;38.402;-96.176;2023-05-14T07:02:48;97821.13;;;24.28;26.41
69689;BME280;56932;38.402;-96.176;2023-05-14T07:05:13;97821.47;;;25.24;25.77
69689;BME280;56932;38.402;-96.176;2023-05-14T07:07:39;97828.23;;;24.83;26.38
69689;BME280;56932;38.402;-96.176;2023-05-14T07:10:05;97832.13;;;23.98;27.29
69689;BME280;56932;38.402;-96.176;2023-05-14T07:12:30;97836.36;;;24.72;26.60
69689;BME280;56932;38.402;-96.176;2023-05-14T07:14:55;97837.67;;;24.54;26.34
69689;BME280;56932;38.402;-96.176;2023-05-14T07:17:20;97845.35;;;24.62;26.82
69689;BME280;56932;38.402;-96.176;2023-05-14T07:19:46;97841.26;;;23.78;27.69
69689;BME280;56932;38.402;-96.176;2023-05-14T07:22:11;97842.26;;;25.06;26.28
69689;BME280;56932;38.402;-96.176;2023-05-14T07:24:37;97844.72;;;24.16;27.17
69689;BME280;56932;38.402;-96.176;2023-05-14T07:27:03;97840.57;;;24.74;26.68
69689;BME280;56932;38.402;-96.176;2023-05-14T07:29:28;97841.75;;;24.59;27.30
69689;BME280;56932;38.402;-96.176;2023-05-14T07:31:53;97851.83;;;24.65;27.04
69689;BME280;56932;38.402;-96.176;2023-05-14T07:34:19;97852.92;;;25.07;26.81
69689;BME280;56932;38.402;-96.176;2023-05-14T07:36:45;97851.51;;;23.46;27.77
69689;BME280;56932;38.402;-96.176;2023-05-14T07:39:09;97850.40;;;24.53;27.04
69689;BME280;56932;38.402;-96.176;2023-05-14T07:41:35;97853.62;;;25.35;26.28
69689;BME280;56932;38.402;-96.176;2023-05-14T07:44:00;97864.05;;;24.16;27.71
69689;BME280;56932;38.402;-96.176;2023-05-14T07:46:26;97862.35;;;25.12;26.83
69689;BME280;56932;38.402;-96.176;2023-05-14T07:48:51;97857.32;;;22.96;28.48
69689;BME280;56932;38.402;-96.176;2023-05-14T07:51:17;97855.24;;;24.41;27.86
69689;BME280;56932;38.402;-96.176;2023-05-14T07:53:42;97857.32;;;24.40;27.57
69689;BME280;56932;38.402;-96.176;2023-05-14T07:56:08;97855.83;;;24.11;27.69
69689;BME280;56932;38.402;-96.176;2023-05-14T07:58:33;97855.82;;;24.60;27.77
69689;BME280;56932;38.402;-96.176;2023-05-14T08:00:59;97853.90;;;24.74;27.21
69689;BME280;56932;38.402;-96.176;2023-05-14T08:03:24;97845.41;;;25.41;26.56
69689;BME280;56932;38.402;-96.176;2023-05-14T08:05:50;97846.40;;;24.06;28.09
69689;BME280;56932;38.402;-96.176;2023-05-14T08:08:15;97844.65;;;25.52;26.45
69689;BME280;56932;38.402;-96.176;2023-05-14T08:10:41;97839.79;;;25.39;26.15
69689;BME280;56932;38.402;-96.176;2023-05-14T08:13:06;97840.14;;;24.31;27.69
69689;BME280;56932;38.402;-96.176;2023-05-14T08:15:31;97842.23;;;24.66;27.37
69689;BME280;56932;38.402;-96.176;2023-05-14T08:17:57;97845.48;;;23.80;28.52
69689;BME280;56932;38.402;-96.176;2023-05-14T08:20:22;97848.43;;;25.03;27.61
69689;BME280;56932;38.402;-96.176;2023-05-14T08:22:48;97855.26;;;23.27;28.44
69689;BME280;56932;38.402;-96.176;2023-05-14T08:25:13;97857.70;;;24.79;27.67
69689;BME280;56932;38.402;-96.176;2023-05-14T08:27:39;97862.01;;;24.14;28.17
69689;BME280;56932;38.402;-96.176;2023-05-14T08:30:05;97867.90;;;24.38;28.47
69689;BME280;56932;38.402;-96.176;2023-05-14T08:32:30;97870.65;;;24.46;28.19
69689;BME280;56932;38.402;-96.176;2023-05-14T08:34:55;97875.45;;;23.73;28.68
69689;BME280;56932;38.402;-96.176;2023-05-14T08:37:21;97876.13;;;24.51;27.95
69689;BME280;56932;38.402;-96.176;2023-05-14T08:39:46;97880.72;;;24.39;28.58
69689;BME280;56932;38.402;-96.176;2023-05-14T08:42:12;97879.62;;;23.82;29.26
69689;BME280;56932;38.402;-96.176;2023-05-14T08:44:43;97877.20;;;24.98;27.64
69689;BME280;56932;38.402;-96.176;2023-05-14T08:47:03;97874.71;;;23.70;28.91
69689;BME280;56932;38.402;-96.176;2023-05-14T08:49:36;97868.33;;;25.02;27.81
69689;BME280;56932;38.402;-96.176;2023-05-14T08:51:54;97877.06;;;24.63;28.24
69689;BME280;56932;38.402;-96.176;2023-05-14T08:54:19;97871.30;;;25.18;27.63
69689;BME280;56932;38.402;-96.176;2023-05-14T08:56:45;97875.48;;;24.03;27.97
69689;BME280;56932;38.402;-96.176;2023-05-14T08:59:10;97872.62;;;24.13;28.58
69689;BME280;56932;38.402;-96.176;2023-05-14T09:01:36;97873.53;;;24.48;28.81
69689;BME280;56932;38.402;-96.176;2023-05-14T09:04:01;97875.52;;;24.21;29.11
69689;BME280;56932;38.402;-96.176;2023-05-14T09:06:26;97883.74;;;23.81;29.23
69689;BME280;56932;38.402;-96.176;2023-05-14T09:08:52;97888.02;;;24.30;29.01
69689;BME280;56932;38.402;-96.176;2023-05-14T09:11:17;97889.56;;;24.49;28.36
69689;BME280;56932;38.402;-96.176;2023-05-14T09:13:42;97890.99;;;24.43;28.69
69689;BME280;56932;38.402;-96.176;2023-05-14T09:16:08;97891.78;;;24.24;29.16
69689;BME280;56932;38.402;-96.176;2023-05-14T09:18:35;97891.04;;;24.39;29.06
69689;BME280;56932;38.402;-96.176;2023-05-14T09:20:59;97889.62;;;23.85;29.12
69689;BME280;56932;38.402;-96.176;2023-05-14T09:23:25;97887.13;;;24.17;29.32
69689;BME280;56932;38.402;-96.176;2023-05-14T09:25:49;97888.24;;;24.13;29.44
69689;BME280;56932;38.402;-96.176;2023-05-14T09:28:17;97887.59;;;25.31;28.22
69689;BME280;56932;38.402;-96.176;2023-05-14T09:30:41;97889.39;;;24.70;27.82
69689;BME280;56932;38.402;-96.176;2023-05-14T09:33:06;97896.41;;;24.97;28.32
69689;BME280;56932;38.402;-96.176;2023-05-14T09:35:31;97898.61;;;25.19;28.37
69689;BME280;56932;38.402;-96.176;2023-05-14T09:37:57;97903.32;;;24.78;28.55
69689;BME280;56932;38.402;-96.176;2023-05-14T09:40:23;97900.37;;;23.99;29.48
69689;BME280;56932;38.402;-96.176;2023-05-14T09:42:48;97901.39;;;23.92;28.85
69689;BME280;56932;38.402;-96.176;2023-05-14T09:45:14;97899.21;;;25.79;27.44
69689;BME280;56932;38.402;-96.176;2023-05-14T09:47:39;97903.81;;;25.00;28.47
69689;BME280;56932;38.402;-96.176;2023-05-14T09:50:05;97905.45;;;24.32;29.31
69689;BME280;56932;38.402;-96.176;2023-05-14T09:52:30;97903.47;;;23.65;30.31
69689;BME280;56932;38.402;-96.176;2023-05-14T09:54:55;97905.52;;;23.92;29.49
69689;BME280;56932;38.402;-96.176;2023-05-14T09:57:21;97902.92;;;24.62;28.75
69689;BME280;56932;38.402;-96.176;2023-05-14T09:59:46;97900.98;;;23.95;29.74
69689;BME280;56932;38.402;-96.176;2023-05-14T10:02:20;97902.91;;;24.84;28.80
69689;BME280;56932;38.402;-96.176;2023-05-14T10:04:37;97904.45;;;23.98;29.51
69689;BME280;56932;38.402;-96.176;2023-05-14T10:07:03;97903.44;;;24.89;28.64
69689;BME280;56932;38.402;-96.176;2023-05-14T10:09:29;97905.18;;;24.40;29.36
69689;BME280;56932;38.402;-96.176;2023-05-14T10:11:57;97903.68;;;24.46;29.06
69689;BME280;56932;38.402;-96.176;2023-05-14T10:14:28;97908.23;;;24.26;29.54
69689;BME280;56932;38.402;-96.176;2023-05-14T10:16:47;97910.28;;;24.07;29.06
69689;BME280;56932;38.402;-96.176;2023-05-14T10:19:10;97912.45;;;23.66;29.98
69689;BME280;56932;38.402;-96.176;2023-05-14T10:21:37;97909.71;;;24.60;29.03
69689;BME280;56932;38.402;-96.176;2023-05-14T10:24:00;97909.42;;;24.83;29.01
69689;BME280;56932;38.402;-96.176;2023-05-14T10:26:26;97908.50;;;24.15;29.72
69689;BME280;56932;38.402;-96.176;2023-05-14T10:28:51;97914.12;;;24.78;28.86
69689;BME280;56932;38.402;-96.176;2023-05-14T10:31:16;97914.10;;;23.58;30.36
69689;BME280;56932;38.402;-96.176;2023-05-14T10:33:46;97916.77;;;24.13;29.85
69689;BME280;56932;38.402;-96.176;2023-05-14T10:36:09;97917.91;;;24.13;30.18
69689;BME280;56932;38.402;-96.176;2023-05-14T10:38:36;97922.79;;;25.04;29.19
69689;BME280;56932;38.402;-96.176;2023-05-14T10:41:01;97924.30;;;23.90;29.57
69689;BME280;56932;38.402;-96.176;2023-05-14T10:43:26;97928.79;;;24.21;30.15
69689;BME280;56932;38.402;-96.176;2023-05-14T10:45:50;97935.78;;;24.56;29.77
69689;BME280;56932;38.402;-96.176;2023-05-14T10:48:15;97939.97;;;24.16;30.22
69689;BME280;56932;38.402;-96.176;2023-05-14T10:50:41;97947.23;;;23.31;30.36
69689;BME280;56932;38.402;-96.176;2023-05-14T10:53:10;97953.04;;;24.51;29.38
69689;BME280;56932;38.402;-96.176;2023-05-14T10:55:31;97946.55;;;24.38;30.08
69689;BME280;56932;38.402;-96.176;2023-05-14T10:57:58;97950.31;;;24.12;30.08
69689;BME280;56932;38.402;-96.176;2023-05-14T11:00:25;97953.55;;;24.08;30.15
69689;BME280;56932;38.402;-96.176;2023-05-14T11:02:47;97956.05;;;23.57;29.93
69689;BME280;56932;38.402;-96.176;2023-05-14T11:05:14;97950.65;;;24.12;30.15
69689;BME280;56932;38.402;-96.176;2023-05-14T11:07:39;97950.91;;;24.79;29.14
69689;BME280;56932;38.402;-96.176;2023-05-14T11:10:05;97950.35;;;23.95;30.63
69689;BME280;56932;38.402;-96.176;2023-05-14T11:12:29;97948.47;;;24.27;30.34
69689;BME280;56932;38.402;-96.176;2023-05-14T11:14:56;97950.25;;;23.61;30.57
69689;BME280;56932;38.402;-96.176;2023-05-14T11:17:20;97948.24;;;24.29;30.38
69689;BME280;56932;38.402;-96.176;2023-05-14T11:19:45;97952.94;;;24.85;29.79
69689;BME280;56932;38.402;-96.176;2023-05-14T11:22:11;97956.02;;;24.97;29.71
69689;BME280;56932;38.402;-96.176;2023-05-14T11:24:36;97963.55;;;24.55;29.61
69689;BME280;56932;38.402;-96.176;2023-05-14T11:27:02;97972.08;;;24.38;29.84
